Time;durP1;ratioP1;P1;durP2;ratioP2;P2;SDS_P1;SDS_P2;PMS_P1;PMS_P2;Temp;Humidity;BMP_temperature;BMP_pressure;BME280_temperature;BME280_humidity;BME280_pressure;Samples;Min_cycle;Max_cycle;Signal;HPM_P1;HPM_P2
2023/03/14 00:01:20;;;;;;;23.80;5.72;;;;;;;;;;4992312;28;92820;-70
2023/03/14 00:03:46;;;;;;;19.60;4.43;;;;;;;;;;4985466;28;92880;-70
2023/03/14 00:06:13;;;;;;;26.27;4.60;;;;;;;;;;4993472;28;93352;-70
2023/03/14 00:08:40;;;;;;;20.42;4.50;;;;;;;;;;4989321;28;92504;-70
2023/03/14 00:11:11;;;;;;;23.52;5.03;;;;;;;;;;4982818;28;93503;-70
2023/03/14 00:13:37;;;;;;;20.48;4.80;;;;;;;;;;4988613;28;96004;-70
2023/03/14 00:16:05;;;;;;;26.38;4.90;;;;;;;;;;4980478;28;92474;-70
2023/03/14 00:18:32;;;;;;;24.48;4.68;;;;;;;;;;4993832;28;93235;-70
2023/03/14 00:21:01;;;;;;;20.98;4.47;;;;;;;;;;4985721;28;94571;-70
2023/03/14 00:23:28;;;;;;;25.50;4.73;;;;;;;;;;4991908;28;93145;-71
2023/03/14 00:25:58;;;;;;;24.20;4.50;;;;;;;;;;4994276;28;93639;-71
2023/03/14 00:28:25;;;;;;;14.57;2.97;;;;;;;;;;4987735;28;92683;-71
2023/03/14 00:30:51;;;;;;;24.40;4.28;;;;;;;;;;4989968;28;93603;-71
2023/03/14 00:33:17;;;;;;;16.42;3.10;;;;;;;;;;4992037;28;93421;-71
2023/03/14 00:35:51;;;;;;;15.50;3.70;;;;;;;;;;4992013;28;93002;-71
2023/03/14 00:38:17;;;;;;;17.90;3.53;;;;;;;;;;4992941;28;95057;-71
2023/03/14 00:40:44;;;;;;;17.70;3.80;;;;;;;;;;4996161;28;93917;-72
2023/03/14 00:43:10;;;;;;;15.88;3.70;;;;;;;;;;4992984;28;93232;-72
2023/03/14 00:45:36;;;;;;;20.67;3.60;;;;;;;;;;4986909;28;93766;-72
2023/03/14 00:48:02;;;;;;;22.83;3.45;;;;;;;;;;4986745;28;92507;-71
2023/03/14 00:50:29;;;;;;;19.20;3.53;;;;;;;;;;4986993;28;93139;-71
2023/03/14 00:52:55;;;;;;;20.48;3.53;;;;;;;;;;4983447;28;93430;-72
2023/03/14 00:55:21;;;;;;;14.68;2.75;;;;;;;;;;4990727;28;91776;-71
2023/03/14 00:57:48;;;;;;;20.23;3.15;;;;;;;;;;4995014;28;92837;-71
2023/03/14 01:00:14;;;;;;;18.17;2.85;;;;;;;;;;4982919;28;93694;-72
2023/03/14 01:02:40;;;;;;;16.45;2.33;;;;;;;;;;4995663;28;94902;-72
2023/03/14 01:05:10;;;;;;;15.20;4.38;;;;;;;;;;4993225;28;93592;-72
2023/03/14 01:07:37;;;;;;;15.82;2.20;;;;;;;;;;4991061;28;92460;-72
2023/03/14 01:10:04;;;;;;;8.90;1.88;;;;;;;;;;4987813;28;94483;-72
2023/03/14 01:12:30;;;;;;;17.17;2.75;;;;;;;;;;4992961;28;93682;-71
2023/03/14 01:14:57;;;;;;;13.20;2.00;;;;;;;;;;4990826;28;92516;-70
2023/03/14 01:17:23;;;;;;;10.48;2.20;;;;;;;;;;4989883;28;93254;-70
2023/03/14 01:19:50;;;;;;;14.32;2.60;;;;;;;;;;4980799;28;92671;-70
2023/03/14 01:22:16;;;;;;;15.50;2.67;;;;;;;;;;4995892;28;92511;-70
2023/03/14 01:24:42;;;;;;;14.45;2.50;;;;;;;;;;5002442;28;93618;-70
2023/03/14 01:27:09;;;;;;;10.60;2.22;;;;;;;;;;4990341;28;95123;-70
2023/03/14 01:29:35;;;;;;;10.30;2.05;;;;;;;;;;4983516;28;95901;-70
2023/03/14 01:32:03;;;;;;;14.65;1.88;;;;;;;;;;4993747;28;93702;-71
2023/03/14 01:34:29;;;;;;;13.48;1.95;;;;;;;;;;4993671;28;92558;-70
2023/03/14 01:36:55;;;;;;;11.70;2.40;;;;;;;;;;5001487;28;93205;-70
2023/03/14 01:39:22;;;;;;;13.57;2.05;;;;;;;;;;4998862;28;93380;-70
2023/03/14 01:41:48;;;;;;;11.88;1.83;;;;;;;;;;4994065;28;92420;-70
2023/03/14 01:44:14;;;;;;;13.18;2.33;;;;;;;;;;4991646;28;94694;-71
2023/03/14 01:46:41;;;;;;;19.23;2.72;;;;;;;;;;4983801;28;93590;-70
2023/03/14 01:49:28;;;;;;;11.50;2.45;;;;;;;;;;4990652;28;94097;-70
2023/03/14 01:52:03;;;;;;;12.75;2.03;;;;;;;;;;4987933;28;97169;-70
2023/03/14 01:54:38;;;;;;;15.13;2.20;;;;;;;;;;4992605;28;93155;-70
2023/03/14 01:57:15;;;;;;;16.98;2.83;;;;;;;;;;4988409;28;93135;-70
2023/03/14 01:59:44;;;;;;;16.55;2.75;;;;;;;;;;4983872;28;93412;-70
2023/03/14 02:02:12;;;;;;;10.55;2.22;;;;;;;;;;4983464;28;92467;-70
2023/03/14 02:04:38;;;;;;;13.63;2.53;;;;;;;;;;4994677;28;94144;-70
2023/03/14 02:07:13;;;;;;;11.50;2.30;;;;;;;;;;4991918;28;93735;-70
2023/03/14 02:09:40;;;;;;;15.10;2.20;;;;;;;;;;4998913;28;91815;-72
2023/03/14 02:12:07;;;;;;;19.42;2.47;;;;;;;;;;4983018;28;93393;-70
2023/03/14 02:14:35;;;;;;;18.45;3.17;;;;;;;;;;4982536;28;92569;-72
2023/03/14 02:17:03;;;;;;;13.20;2.40;;;;;;;;;;4995466;28;95153;-71
2023/03/14 02:19:38;;;;;;;10.63;2.15;;;;;;;;;;4980788;28;93495;-71
2023/03/14 02:22:10;;;;;;;8.60;1.92;;;;;;;;;;5003316;28;93892;-71
2023/03/14 02:24:56;;;;;;;7.15;2.15;;;;;;;;;;4996231;28;94727;-72
2023/03/14 02:27:22;;;;;;;14.43;1.63;;;;;;;;;;4995620;28;93477;-71
2023/03/14 02:29:57;;;;;;;14.68;2.08;;;;;;;;;;4994751;28;93155;-71
2023/03/14 02:32:24;;;;;;;13.68;1.83;;;;;;;;;;4998423;28;96014;-70
2023/03/14 02:34:54;;;;;;;16.73;2.55;;;;;;;;;;4994305;28;92272;-71
2023/03/14 02:37:22;;;;;;;12.03;2.00;;;;;;;;;;4991551;28;92624;-71
2023/03/14 02:39:49;;;;;;;7.97;2.00;;;;;;;;;;4992140;28;93637;-71
2023/03/14 02:42:15;;;;;;;11.07;2.40;;;;;;;;;;4995404;28;94860;-71
2023/03/14 02:44:59;;;;;;;22.73;3.08;;;;;;;;;;4989839;28;96730;-71
2023/03/14 02:47:27;;;;;;;10.60;2.30;;;;;;;;;;4996328;28;94227;-71
2023/03/14 02:49:58;;;;;;;12.75;2.70;;;;;;;;;;4980294;28;92733;-70
2023/03/14 02:52:24;;;;;;;9.65;2.60;;;;;;;;;;4991355;28;93019;-70
2023/03/14 02:54:50;;;;;;;9.18;2.53;;;;;;;;;;4988659;28;92789;-70
2023/03/14 02:57:17;;;;;;;10.00;2.60;;;;;;;;;;4995233;28;93147;-71
2023/03/14 02:59:43;;;;;;;17.70;2.92;;;;;;;;;;4990369;28;92809;-71
2023/03/14 03:02:09;;;;;;;21.48;3.45;;;;;;;;;;4996914;28;92489;-71
2023/03/14 03:04:35;;;;;;;11.68;2.80;;;;;;;;;;4981038;28;93170;-71
2023/03/14 03:07:02;;;;;;;11.80;2.78;;;;;;;;;;4992331;28;96964;-71
2023/03/14 03:09:28;;;;;;;17.10;3.22;;;;;;;;;;4990987;28;92505;-71
2023/03/14 03:11:54;;;;;;;13.63;2.78;;;;;;;;;;4984827;28;93127;-71
2023/03/14 03:14:21;;;;;;;13.18;2.85;;;;;;;;;;4995536;28;93555;-71
2023/03/14 03:16:47;;;;;;;13.57;2.85;;;;;;;;;;4993058;28;93262;-70
2023/03/14 03:19:15;;;;;;;10.50;2.63;;;;;;;;;;4991989;28;92734;-70
2023/03/14 03:21:42;;;;;;;11.15;2.85;;;;;;;;;;4980241;28;92792;-71
2023/03/14 03:24:08;;;;;;;14.55;2.78;;;;;;;;;;4983774;28;93501;-70
2023/03/14 03:26:35;;;;;;;10.45;2.45;;;;;;;;;;4989273;28;93569;-71
2023/03/14 03:29:01;;;;;;;19.27;2.90;;;;;;;;;;4979173;28;92558;-71
2023/03/14 03:31:28;;;;;;;10.40;2.60;;;;;;;;;;4994813;28;94772;-71
2023/03/14 03:33:54;;;;;;;11.65;2.70;;;;;;;;;;4995185;28;93848;-71
2023/03/14 03:36:24;;;;;;;16.42;2.60;;;;;;;;;;4998662;28;92506;-71
2023/03/14 03:38:50;;;;;;;9.20;2.30;;;;;;;;;;4983066;28;93845;-71
2023/03/14 03:41:17;;;;;;;15.82;2.88;;;;;;;;;;4994241;28;92455;-71
2023/03/14 03:43:43;;;;;;;17.73;2.55;;;;;;;;;;4994871;28;93228;-71
2023/03/14 03:46:09;;;;;;;18.75;2.75;;;;;;;;;;4992033;28;93530;-70
2023/03/14 03:48:36;;;;;;;22.33;3.17;;;;;;;;;;4994110;28;92537;-71
2023/03/14 03:51:02;;;;;;;15.45;2.33;;;;;;;;;;4992725;28;95185;-70
2023/03/14 03:53:29;;;;;;;22.23;3.00;;;;;;;;;;4992887;28;95784;-70
2023/03/14 03:55:59;;;;;;;10.98;2.28;;;;;;;;;;4985389;28;94855;-70
2023/03/14 03:58:25;;;;;;;16.27;2.92;;;;;;;;;;4989846;28;95958;-70
2023/03/14 04:00:51;;;;;;;16.50;3.10;;;;;;;;;;4985805;28;92556;-70
2023/03/14 04:03:18;;;;;;;12.02;2.25;;;;;;;;;;4984732;28;93443;-70
2023/03/14 04:05:44;;;;;;;16.60;2.85;;;;;;;;;;4992264;28;93232;-71
2023/03/14 04:08:11;;;;;;;14.85;2.90;;;;;;;;;;5000058;28;93304;-71
2023/03/14 04:10:37;;;;;;;15.95;3.20;;;;;;;;;;4987941;28;93229;-71
2023/03/14 04:13:03;;;;;;;11.63;2.50;;;;;;;;;;4995041;28;93084;-72
2023/03/14 04:15:30;;;;;;;17.05;3.45;;;;;;;;;;4993655;28;92430;-72
2023/03/14 04:17:57;;;;;;;8.93;1.90;;;;;;;;;;4982248;28;93311;-72
2023/03/14 04:20:23;;;;;;;13.90;3.03;;;;;;;;;;4986369;28;95501;-71
2023/03/14 04:22:50;;;;;;;16.75;2.80;;;;;;;;;;4990050;28;95578;-71
2023/03/14 04:25:17;;;;;;;16.38;2.25;;;;;;;;;;4993393;28;95462;-71
2023/03/14 04:27:43;;;;;;;13.73;2.20;;;;;;;;;;4992920;28;92852;-71
2023/03/14 04:30:10;;;;;;;15.15;2.33;;;;;;;;;;4994200;28;93531;-71
2023/03/14 04:32:38;;;;;;;13.00;2.63;;;;;;;;;;4980146;28;93683;-71
2023/03/14 04:35:05;;;;;;;10.98;2.40;;;;;;;;;;4989523;28;92428;-71
2023/03/14 04:37:31;;;;;;;22.15;2.63;;;;;;;;;;4992647;28;94322;-72
2023/03/14 04:39:57;;;;;;;14.52;3.28;;;;;;;;;;4986000;28;93190;-69
2023/03/14 04:42:23;;;;;;;12.95;2.70;;;;;;;;;;4994844;28;93307;-72
2023/03/14 04:44:50;;;;;;;15.70;3.17;;;;;;;;;;4988444;28;96075;-70
2023/03/14 04:47:16;;;;;;;13.82;2.35;;;;;;;;;;4983656;28;92495;-70
2023/03/14 04:49:42;;;;;;;13.50;2.60;;;;;;;;;;4989759;28;93932;-70
2023/03/14 04:52:09;;;;;;;11.45;2.35;;;;;;;;;;4986514;28;94459;-70
2023/03/14 04:54:35;;;;;;;15.07;3.40;;;;;;;;;;4994196;28;92490;-70
2023/03/14 04:57:02;;;;;;;14.80;3.15;;;;;;;;;;4994443;28;93252;-70
2023/03/14 04:59:28;;;;;;;17.65;3.40;;;;;;;;;;4991511;28;93528;-70
2023/03/14 05:01:54;;;;;;;15.93;3.38;;;;;;;;;;4996094;28;91733;-70
2023/03/14 05:04:21;;;;;;;14.60;3.10;;;;;;;;;;4993123;28;93383;-71
2023/03/14 05:06:47;;;;;;;14.68;2.55;;;;;;;;;;4991816;28;92698;-70
2023/03/14 05:09:15;;;;;;;8.13;2.40;;;;;;;;;;4987293;28;96601;-70
2023/03/14 05:11:41;;;;;;;18.80;3.30;;;;;;;;;;4992299;28;93688;-70
2023/03/14 05:14:07;;;;;;;11.20;2.10;;;;;;;;;;4991847;28;92484;-70
2023/03/14 05:16:34;;;;;;;11.82;3.08;;;;;;;;;;4992006;28;92911;-70
2023/03/14 05:19:01;;;;;;;16.58;2.58;;;;;;;;;;4983084;28;93687;-70
2023/03/14 05:21:27;;;;;;;13.20;2.40;;;;;;;;;;4990967;28;92831;-70
2023/03/14 05:23:53;;;;;;;10.07;2.65;;;;;;;;;;4996429;28;93246;-70
2023/03/14 05:26:20;;;;;;;22.40;2.78;;;;;;;;;;4993648;28;91833;-71
2023/03/14 05:28:46;;;;;;;16.25;2.85;;;;;;;;;;4997052;28;92496;-72
2023/03/14 05:31:13;;;;;;;14.65;2.72;;;;;;;;;;4993535;28;93714;-71
2023/03/14 05:33:39;;;;;;;14.40;3.22;;;;;;;;;;4992458;28;94951;-71
2023/03/14 05:36:06;;;;;;;10.02;3.28;;;;;;;;;;4993870;28;96629;-71
2023/03/14 05:38:33;;;;;;;10.75;2.78;;;;;;;;;;4994200;28;93465;-70
2023/03/14 05:40:59;;;;;;;12.70;3.25;;;;;;;;;;5004077;28;92570;-70
2023/03/14 05:43:25;;;;;;;8.07;3.08;;;;;;;;;;4992953;28;95689;-70
2023/03/14 05:45:51;;;;;;;15.98;3.28;;;;;;;;;;4996086;28;93479;-70
2023/03/14 05:48:18;;;;;;;8.75;3.45;;;;;;;;;;4993559;28;93328;-71
2023/03/14 05:50:44;;;;;;;7.97;3.20;;;;;;;;;;4994565;28;93869;-71
2023/03/14 05:53:10;;;;;;;13.48;4.20;;;;;;;;;;4989122;28;92482;-72
2023/03/14 05:55:37;;;;;;;7.53;3.75;;;;;;;;;;4989418;28;93093;-71
2023/03/14 05:58:03;;;;;;;16.38;4.50;;;;;;;;;;4990888;28;97171;-71
2023/03/14 06:00:29;;;;;;;14.55;4.13;;;;;;;;;;4989556;28;92743;-71
2023/03/14 06:02:56;;;;;;;12.32;4.45;;;;;;;;;;4990469;28;93328;-71
2023/03/14 06:05:22;;;;;;;10.75;4.15;;;;;;;;;;4993443;28;96757;-71
2023/03/14 06:07:49;;;;;;;9.98;4.10;;;;;;;;;;4987161;28;94179;-72
2023/03/14 06:10:15;;;;;;;10.02;4.20;;;;;;;;;;4988164;28;93734;-71
2023/03/14 06:12:41;;;;;;;16.02;4.47;;;;;;;;;;4989431;28;92492;-71
2023/03/14 06:15:08;;;;;;;9.93;4.50;;;;;;;;;;4983071;28;93232;-71
2023/03/14 06:17:34;;;;;;;14.05;4.30;;;;;;;;;;4988745;28;93641;-71
2023/03/14 06:20:00;;;;;;;12.55;5.22;;;;;;;;;;4994445;28;94031;-71
2023/03/14 06:22:27;;;;;;;11.40;5.03;;;;;;;;;;4991062;28;94925;-71
2023/03/14 06:24:53;;;;;;;14.70;5.35;;;;;;;;;;4991695;28;94590;-71
2023/03/14 06:27:19;;;;;;;12.73;5.63;;;;;;;;;;4984832;28;94973;-71
2023/03/14 06:29:46;;;;;;;12.57;5.47;;;;;;;;;;4994483;28;94193;-70
2023/03/14 06:32:12;;;;;;;14.38;6.63;;;;;;;;;;4993107;28;92436;-71
2023/03/14 06:34:38;;;;;;;13.27;5.90;;;;;;;;;;4990174;28;94074;-71
2023/03/14 06:37:05;;;;;;;12.30;5.90;;;;;;;;;;4979701;28;93478;-72
2023/03/14 06:39:32;;;;;;;18.83;6.60;;;;;;;;;;4976546;28;92169;-71
2023/03/14 06:41:58;;;;;;;18.88;6.53;;;;;;;;;;4989675;28;92579;-72
2023/03/14 06:44:24;;;;;;;8.52;4.25;;;;;;;;;;4994934;28;93496;-72
2023/03/14 06:46:51;;;;;;;8.38;3.13;;;;;;;;;;4987314;28;94865;-71
2023/03/14 06:49:17;;;;;;;4.63;1.90;;;;;;;;;;4985824;28;95541;-71
2023/03/14 06:51:43;;;;;;;7.03;1.70;;;;;;;;;;4994232;28;92628;-71
2023/03/14 06:54:10;;;;;;;4.00;1.35;;;;;;;;;;4994333;28;93440;-71
2023/03/14 06:56:36;;;;;;;2.42;0.70;;;;;;;;;;4993255;28;94203;-71
2023/03/14 06:59:02;;;;;;;2.05;0.60;;;;;;;;;;4994064;28;92484;-71
2023/03/14 07:01:29;;;;;;;2.22;0.63;;;;;;;;;;4988564;28;93121;-71
2023/03/14 07:03:56;;;;;;;2.25;0.60;;;;;;;;;;4996351;28;92420;-71
2023/03/14 07:06:22;;;;;;;2.05;0.73;;;;;;;;;;4994056;28;92457;-71
2023/03/14 07:08:49;;;;;;;4.82;0.85;;;;;;;;;;4990430;28;93253;-71
2023/03/14 07:11:15;;;;;;;3.90;0.70;;;;;;;;;;4990115;28;98209;-72
2023/03/14 07:13:41;;;;;;;1.73;0.68;;;;;;;;;;4994377;28;94248;-71
2023/03/14 07:16:08;;;;;;;3.92;1.15;;;;;;;;;;4994765;28;93823;-71
2023/03/14 07:18:34;;;;;;;2.78;0.80;;;;;;;;;;4994455;28;92457;-71
2023/03/14 07:21:01;;;;;;;2.50;0.80;;;;;;;;;;4993887;28;93314;-71
2023/03/14 07:23:27;;;;;;;4.97;1.50;;;;;;;;;;4996799;28;93384;-71
2023/03/14 07:25:53;;;;;;;7.47;1.20;;;;;;;;;;4991852;28;92550;-71
2023/03/14 07:28:20;;;;;;;4.65;1.50;;;;;;;;;;4995710;28;93496;-70
2023/03/14 07:30:47;;;;;;;5.30;1.30;;;;;;;;;;4994509;28;93770;-70
2023/03/14 07:33:13;;;;;;;4.35;1.02;;;;;;;;;;4997061;28;92490;-70
2023/03/14 07:35:39;;;;;;;5.20;1.45;;;;;;;;;;4994213;28;96437;-70
2023/03/14 07:38:06;;;;;;;5.72;1.25;;;;;;;;;;5002966;28;92464;-71
2023/03/14 07:40:32;;;;;;;3.88;1.27;;;;;;;;;;4996553;28;92874;-71
2023/03/14 07:42:58;;;;;;;2.35;1.33;;;;;;;;;;4992971;28;93397;-70
2023/03/14 07:45:25;;;;;;;3.92;0.90;;;;;;;;;;4996023;28;92480;-70
2023/03/14 07:47:57;;;;;;;6.70;1.00;;;;;;;;;;4980232;28;97131;-70
2023/03/14 07:50:26;;;;;;;1.33;0.77;;;;;;;;;;4980157;28;93541;-69
2023/03/14 07:52:53;;;;;;;2.03;0.55;;;;;;;;;;4984535;28;91773;-70
2023/03/14 07:55:20;;;;;;;4.05;0.88;;;;;;;;;;4996175;28;93902;-70
2023/03/14 07:57:46;;;;;;;4.57;0.82;;;;;;;;;;4991023;28;92551;-71
2023/03/14 08:00:14;;;;;;;1.67;0.70;;;;;;;;;;4973620;28;94827;-70
2023/03/14 08:02:41;;;;;;;4.25;0.90;;;;;;;;;;4987916;28;93585;-70
2023/03/14 08:05:08;;;;;;;2.78;0.88;;;;;;;;;;4985513;28;92443;-70
2023/03/14 08:07:34;;;;;;;4.15;0.82;;;;;;;;;;4982597;28;94278;-70
2023/03/14 08:10:00;;;;;;;5.65;0.95;;;;;;;;;;4993850;28;93436;-70
2023/03/14 08:12:27;;;;;;;2.55;1.13;;;;;;;;;;4988773;28;92477;-71
2023/03/14 08:14:53;;;;;;;5.15;0.88;;;;;;;;;;4984537;28;93161;-71
2023/03/14 08:17:19;;;;;;;8.80;1.40;;;;;;;;;;4995068;28;91750;-70
2023/03/14 08:19:46;;;;;;;5.03;1.00;;;;;;;;;;4976629;28;92786;-70
2023/03/14 08:22:12;;;;;;;5.93;1.17;;;;;;;;;;4984493;28;93738;-70
2023/03/14 08:24:39;;;;;;;8.30;1.20;;;;;;;;;;4989019;28;94864;-70
2023/03/14 08:27:05;;;;;;;9.35;1.30;;;;;;;;;;4988098;28;94460;-70
2023/03/14 08:29:34;;;;;;;9.30;1.23;;;;;;;;;;4992010;28;94456;-70
2023/03/14 08:32:01;;;;;;;9.07;1.30;;;;;;;;;;4989002;28;92757;-70
2023/03/14 08:34:27;;;;;;;9.27;1.10;;;;;;;;;;4984904;28;93114;-70
2023/03/14 08:36:56;;;;;;;5.50;0.70;;;;;;;;;;4984708;28;92613;-70
2023/03/14 08:39:23;;;;;;;6.65;1.08;;;;;;;;;;4988586;28;92492;-70
2023/03/14 08:41:49;;;;;;;5.15;0.90;;;;;;;;;;4989910;28;92627;-70
2023/03/14 08:44:15;;;;;;;6.55;0.93;;;;;;;;;;4994924;28;92500;-70
2023/03/14 08:46:45;;;;;;;5.15;0.90;;;;;;;;;;5001989;28;94492;-70
2023/03/14 08:49:12;;;;;;;2.97;0.90;;;;;;;;;;5013292;28;98233;-70
2023/03/14 08:51:39;;;;;;;4.53;0.90;;;;;;;;;;4993581;28;92476;-70
2023/03/14 08:54:05;;;;;;;4.38;0.60;;;;;;;;;;4995030;28;93670;-71
2023/03/14 08:56:32;;;;;;;4.65;0.82;;;;;;;;;;4994561;28;93417;-71
2023/03/14 08:58:58;;;;;;;6.07;0.70;;;;;;;;;;4995884;28;92714;-72
2023/03/14 09:01:26;;;;;;;5.88;0.82;;;;;;;;;;4991772;28;93328;-71
2023/03/14 09:03:52;;;;;;;11.82;1.15;;;;;;;;;;4988381;28;92549;-72
2023/03/14 09:06:19;;;;;;;9.57;1.30;;;;;;;;;;4981537;28;93086;-72
2023/03/14 09:08:45;;;;;;;6.68;1.02;;;;;;;;;;4993069;28;93740;-71
2023/03/14 09:11:12;;;;;;;8.27;1.60;;;;;;;;;;5014755;28;93127;-71
2023/03/14 09:13:38;;;;;;;13.27;1.75;;;;;;;;;;4996507;28;94820;-71
2023/03/14 09:16:05;;;;;;;10.98;1.83;;;;;;;;;;4979967;28;93448;-71
2023/03/14 09:18:32;;;;;;;12.02;1.85;;;;;;;;;;5014546;28;92465;-71
2023/03/14 09:20:58;;;;;;;13.35;1.75;;;;;;;;;;5003739;28;93163;-71
2023/03/14 09:23:24;;;;;;;12.05;2.20;;;;;;;;;;4993633;28;92720;-71
2023/03/14 09:25:54;;;;;;;15.05;2.17;;;;;;;;;;4994794;28;92551;-71
2023/03/14 09:28:20;;;;;;;9.67;1.40;;;;;;;;;;4988818;28;93381;-71
2023/03/14 09:30:47;;;;;;;10.38;1.70;;;;;;;;;;4981712;28;92014;-73
2023/03/14 09:33:13;;;;;;;12.88;2.38;;;;;;;;;;4991223;28;92606;-71
2023/03/14 09:35:39;;;;;;;11.50;2.00;;;;;;;;;;4987823;28;93719;-71
2023/03/14 09:38:06;;;;;;;21.65;2.75;;;;;;;;;;4986161;28;95082;-71
2023/03/14 09:40:34;;;;;;;22.77;2.30;;;;;;;;;;4990020;28;95896;-71
2023/03/14 09:43:00;;;;;;;19.33;2.35;;;;;;;;;;4996527;28;93386;-71
2023/03/14 09:45:37;;;;;;;15.77;2.00;;;;;;;;;;4980680;28;94230;-70
2023/03/14 09:48:04;;;;;;;17.92;3.25;;;;;;;;;;4991412;28;93433;-69
2023/03/14 09:50:36;;;;;;;13.32;2.30;;;;;;;;;;4992513;28;92892;-69
2023/03/14 09:53:05;;;;;;;17.92;2.30;;;;;;;;;;4983983;28;93275;-69
2023/03/14 09:55:32;;;;;;;25.92;3.13;;;;;;;;;;4994103;28;91744;-69
2023/03/14 09:58:08;;;;;;;13.90;3.20;;;;;;;;;;4989532;28;92781;-69
2023/03/14 10:00:34;;;;;;;22.20;2.20;;;;;;;;;;4994849;28;93399;-69
2023/03/14 10:03:18;;;;;;;28.52;3.33;;;;;;;;;;4993356;28;95951;-71
2023/03/14 10:05:44;;;;;;;20.77;2.40;;;;;;;;;;4986554;28;93001;-69
2023/03/14 10:08:11;;;;;;;20.58;3.10;;;;;;;;;;4984162;28;93395;-69
2023/03/14 10:10:38;;;;;;;26.83;2.95;;;;;;;;;;4992893;28;92671;-69
2023/03/14 10:13:25;;;;;;;30.02;3.47;;;;;;;;;;4993568;28;93282;-69
2023/03/14 10:15:59;;;;;;;23.23;3.28;;;;;;;;;;4980013;28;93454;-69
2023/03/14 10:18:27;;;;;;;22.35;2.88;;;;;;;;;;4977879;28;92638;-69
2023/03/14 10:21:16;;;;;;;17.88;2.92;;;;;;;;;;4986697;28;93504;-69
2023/03/14 10:23:42;;;;;;;23.50;3.35;;;;;;;;;;4988510;28;93499;-69
2023/03/14 10:26:13;;;;;;;20.85;3.50;;;;;;;;;;4977706;28;92471;-69
2023/03/14 10:28:39;;;;;;;;;;;;;;;;;;4989059;28;94912;-69
2023/03/14 10:31:06;;;;;;;16.40;2.70;;;;;;;;;;4986668;28;121315;-69
2023/03/14 10:33:33;;;;;;;12.88;2.78;;;;;;;;;;4982750;28;93298;-69
2023/03/14 10:36:06;;;;;;;18.55;2.80;;;;;;;;;;4989635;28;93251;-70
2023/03/14 10:38:35;;;;;;;24.30;2.90;;;;;;;;;;4996407;28;92470;-70
2023/03/14 10:41:13;;;;;;;38.40;4.40;;;;;;;;;;4984955;28;93215;-69
2023/03/14 10:43:41;;;;;;;32.65;3.42;;;;;;;;;;4996019;28;93406;-69
2023/03/14 10:46:17;;;;;;;22.73;3.22;;;;;;;;;;4997910;28;91763;-70
2023/03/14 10:48:45;;;;;;;31.25;4.50;;;;;;;;;;4991794;28;92680;-69
2023/03/14 10:51:11;;;;;;;18.23;2.80;;;;;;;;;;4983599;28;93473;-69
2023/03/14 10:53:42;;;;;;;26.85;3.65;;;;;;;;;;4995507;28;95099;-69
2023/03/14 10:56:12;;;;;;;32.38;3.83;;;;;;;;;;4996331;28;93422;-69
2023/03/14 10:58:41;;;;;;;31.42;4.60;;;;;;;;;;4996280;28;93829;-70
2023/03/14 11:01:21;;;;;;;30.63;4.00;;;;;;;;;;4995594;28;93401;-69
2023/03/14 11:03:53;;;;;;;29.33;4.18;;;;;;;;;;4996664;28;93610;-70
2023/03/14 11:06:20;;;;;;;29.70;3.70;;;;;;;;;;4996433;28;92534;-70
2023/03/14 11:08:55;;;;;;;28.00;4.78;;;;;;;;;;4994672;28;93145;-70
2023/03/14 11:11:23;;;;;;;29.95;3.95;;;;;;;;;;4987749;28;92661;-69
2023/03/14 11:13:57;;;;;;;28.85;4.10;;;;;;;;;;4983790;28;92712;-68
2023/03/14 11:16:23;;;;;;;16.50;3.17;;;;;;;;;;4995694;28;94466;-69
2023/03/14 11:19:02;;;;;;;38.75;4.25;;;;;;;;;;4994939;28;94803;-69
2023/03/14 11:21:28;;;;;;;23.25;4.30;;;;;;;;;;4994743;28;98532;-69
2023/03/14 11:23:57;;;;;;;23.75;3.00;;;;;;;;;;4996319;28;93416;-69
2023/03/14 11:26:37;;;;;;;18.52;3.33;;;;;;;;;;4991460;28;92733;-70
2023/03/14 11:29:22;;;;;;;24.98;2.85;;;;;;;;;;4996400;28;93591;-69
2023/03/14 11:31:48;;;;;;;18.83;2.80;;;;;;;;;;4995199;28;92494;-69
2023/03/14 11:34:16;;;;;;;21.08;3.45;;;;;;;;;;4999266;28;92367;-69
2023/03/14 11:36:43;;;;;;;10.50;2.53;;;;;;;;;;4996641;28;93005;-69
2023/03/14 11:39:16;;;;;;;18.00;3.08;;;;;;;;;;4995517;28;92572;-69
2023/03/14 11:41:45;;;;;;;26.42;3.40;;;;;;;;;;4979700;28;93292;-69
2023/03/14 11:44:32;;;;;;;18.75;3.17;;;;;;;;;;4996636;28;95732;-71
2023/03/14 11:47:14;;;;;;;13.15;3.20;;;;;;;;;;4994859;28;92491;-69
2023/03/14 11:49:46;;;;;;;18.85;3.10;;;;;;;;;;4994066;28;94204;-68
2023/03/14 11:52:15;;;;;;;22.40;2.90;;;;;;;;;;4991539;28;93305;-69
2023/03/14 11:54:54;;;;;;;13.37;2.50;;;;;;;;;;4994823;28;92623;-69
2023/03/14 11:57:21;;;;;;;17.98;4.13;;;;;;;;;;4998093;28;93329;-69
2023/03/14 11:59:51;;;;;;;11.75;2.63;;;;;;;;;;4995850;28;92617;-69
2023/03/14 12:02:29;;;;;;;15.13;2.95;;;;;;;;;;4995366;28;93239;-69
2023/03/14 12:05:14;;;;;;;9.73;2.60;;;;;;;;;;4995448;28;93598;-72
2023/03/14 12:08:01;;;;;;;11.40;2.33;;;;;;;;;;4995203;28;92850;-70
2023/03/14 12:10:27;;;;;;;10.93;2.20;;;;;;;;;;4971917;28;95080;-70
2023/03/14 12:12:53;;;;;;;13.32;2.78;;;;;;;;;;4990975;28;93402;-70
2023/03/14 12:15:21;;;;;;;18.90;3.10;;;;;;;;;;4978442;28;92553;-70
2023/03/14 12:17:53;;;;;;;10.20;2.40;;;;;;;;;;4984456;28;93339;-69
2023/03/14 12:20:21;;;;;;;12.15;3.00;;;;;;;;;;4978028;28;93386;-72
2023/03/14 12:22:49;;;;;;;12.57;3.25;;;;;;;;;;4982438;28;92962;-70
2023/03/14 12:25:15;;;;;;;9.52;2.42;;;;;;;;;;4992608;28;94315;-70
2023/03/14 12:27:43;;;;;;;11.00;2.08;;;;;;;;;;4996250;28;91737;-70
2023/03/14 12:30:16;;;;;;;9.82;2.30;;;;;;;;;;4995119;28;92372;-70
2023/03/14 12:32:42;;;;;;;9.57;2.67;;;;;;;;;;4978291;28;93949;-70
2023/03/14 12:35:44;;;;;;;11.80;2.65;;;;;;;;;;4978906;28;94923;-70
2023/03/14 12:38:10;;;;;;;13.13;2.72;;;;;;;;;;4969379;28;96060;-70
2023/03/14 12:40:47;;;;;;;13.05;2.65;;;;;;;;;;4956002;28;93089;-70
2023/03/14 12:43:27;;;;;;;11.57;2.38;;;;;;;;;;4974959;28;92918;-70
2023/03/14 12:46:14;;;;;;;11.38;2.30;;;;;;;;;;4963115;28;93488;-70
2023/03/14 12:48:40;;;;;;;13.43;2.65;;;;;;;;;;4961467;28;92584;-70
2023/03/14 12:51:13;;;;;;;12.18;1.90;;;;;;;;;;4978357;28;93210;-69
2023/03/14 12:53:49;;;;;;;34.90;2.55;;;;;;;;;;4958461;28;92837;-70
2023/03/14 12:56:22;;;;;;;9.60;1.88;;;;;;;;;;4955880;28;92677;-70
2023/03/14 12:59:09;;;;;;;10.02;2.53;;;;;;;;;;4960488;28;93321;-71
2023/03/14 13:01:35;;;;;;;15.68;2.80;;;;;;;;;;4969544;28;100126;-71
2023/03/14 13:04:08;;;;;;;9.07;1.90;;;;;;;;;;4975319;28;92535;-71
2023/03/14 13:06:46;;;;;;;10.48;2.20;;;;;;;;;;4979127;28;93248;-71
2023/03/14 13:09:32;;;;;;;11.02;1.80;;;;;;;;;;4990208;28;92575;-70
2023/03/14 13:12:02;;;;;;;8.77;2.17;;;;;;;;;;5000487;28;92154;-71
2023/03/14 13:14:30;;;;;;;7.30;1.88;;;;;;;;;;5017289;28;97821;-72
2023/03/14 13:17:00;;;;;;;8.52;1.50;;;;;;;;;;5019925;28;92383;-72
2023/03/14 13:19:50;;;;;;;6.00;1.80;;;;;;;;;;5018139;28;93716;-72
2023/03/14 13:22:25;;;;;;;8.18;1.73;;;;;;;;;;5019575;28;92481;-72
2023/03/14 13:25:02;;;;;;;7.43;1.60;;;;;;;;;;5019309;28;91810;-73
2023/03/14 13:27:30;;;;;;;12.88;1.73;;;;;;;;;;5000430;28;94578;-72
2023/03/14 13:29:56;;;;;;;7.78;1.65;;;;;;;;;;5017193;28;91657;-72
2023/03/14 13:32:26;;;;;;;7.03;1.75;;;;;;;;;;5019705;28;92262;-73
2023/03/14 13:34:59;;;;;;;13.35;1.40;;;;;;;;;;5020196;28;92083;-73
2023/03/14 13:37:26;;;;;;;8.10;1.70;;;;;;;;;;5019360;28;92325;-72
2023/03/14 13:39:55;;;;;;;15.68;2.20;;;;;;;;;;5018766;28;92393;-72
2023/03/14 13:42:25;;;;;;;12.48;1.70;;;;;;;;;;4999402;28;92540;-71
2023/03/14 13:44:53;;;;;;;5.10;1.50;;;;;;;;;;4998062;28;91714;-71
2023/03/14 13:47:21;;;;;;;8.95;2.10;;;;;;;;;;4997599;28;92369;-71
2023/03/14 13:49:48;;;;;;;10.82;2.25;;;;;;;;;;4987592;28;93173;-71
2023/03/14 13:52:41;;;;;;;12.45;1.65;;;;;;;;;;4997332;28;94779;-71
2023/03/14 13:55:14;;;;;;;10.40;1.85;;;;;;;;;;4995321;28;93465;-71
2023/03/14 13:57:48;;;;;;;7.72;1.38;;;;;;;;;;4996405;28;92488;-71
2023/03/14 14:00:18;;;;;;;8.48;2.10;;;;;;;;;;4998691;28;94097;-71
2023/03/14 14:02:45;;;;;;;14.30;2.25;;;;;;;;;;4998683;28;93400;-71
2023/03/14 14:05:12;;;;;;;10.63;1.98;;;;;;;;;;4997524;28;92522;-71
2023/03/14 14:07:39;;;;;;;9.20;1.98;;;;;;;;;;4990318;28;95812;-71
2023/03/14 14:10:05;;;;;;;6.57;1.73;;;;;;;;;;4999741;28;95385;-71
2023/03/14 14:12:36;;;;;;;11.88;2.10;;;;;;;;;;4998953;28;92707;-71
2023/03/14 14:15:02;;;;;;;15.20;2.83;;;;;;;;;;4998029;28;93249;-71
2023/03/14 14:17:35;;;;;;;16.83;2.10;;;;;;;;;;4986826;28;95029;-71
2023/03/14 14:20:05;;;;;;;14.05;2.40;;;;;;;;;;5004538;28;95554;-71
2023/03/14 14:22:32;;;;;;;12.43;2.53;;;;;;;;;;4987924;28;94142;-71
2023/03/14 14:24:59;;;;;;;10.82;2.00;;;;;;;;;;4992098;28;92475;-73
2023/03/14 14:27:34;;;;;;;10.82;1.90;;;;;;;;;;4990073;28;93279;-73
2023/03/14 14:30:03;;;;;;;18.48;2.33;;;;;;;;;;4982114;28;93960;-72
2023/03/14 14:32:36;;;;;;;13.25;1.90;;;;;;;;;;4977196;28;92429;-72
2023/03/14 14:35:03;;;;;;;10.20;2.25;;;;;;;;;;4983047;28;97640;-72
2023/03/14 14:37:32;;;;;;;11.77;2.00;;;;;;;;;;4988466;28;92454;-72
2023/03/14 14:39:59;;;;;;;9.15;1.98;;;;;;;;;;4996419;28;94277;-72
2023/03/14 14:42:30;;;;;;;15.50;2.80;;;;;;;;;;4992741;28;96479;-72